Time;durP1;ratioP1;P1;durP2;ratioP2;P2;SDS_P1;SDS_P2;PMS_P1;PMS_P2;Temp;Humidity;BMP_temperature;BMP_pressure;BME280_temperature;BME280_humidity;BME280_pressure;Samples;Min_cycle;Max_cycle;Signal;HPM_P1;HPM_P2
2021/10/30 00:01:37;;;;;;;10.38;4.43;;;14.00;90.50;;;;;;20813584;28;81018;-69
2021/10/30 00:11:39;;;;;;;10.77;3.75;;;14.00;90.70;;;;;;20813959;28;80994;-71
2021/10/30 00:21:41;;;;;;;11.75;3.03;;;13.90;90.70;;;;;;20813680;28;81842;-70
2021/10/30 00:31:43;;;;;;;12.30;3.80;;;13.90;90.80;;;;;;20813139;28;80728;-69
2021/10/30 00:41:47;;;;;;;4.97;2.67;;;13.90;90.80;;;;;;20810837;28;80803;-69
2021/10/30 00:51:54;;;;;;;5.45;2.20;;;14.00;91.00;;;;;;20811492;28;80740;-70
2021/10/30 01:01:58;;;;;;;8.38;3.22;;;14.20;91.10;;;;;;20810795;28;81128;-68
2021/10/30 01:12:01;;;;;;;9.50;4.13;;;14.20;91.10;;;;;;20809928;28;80717;-68
2021/10/30 01:22:04;;;;;;;8.93;4.63;;;14.40;91.10;;;;;;20808382;28;81911;-69
2021/10/30 01:32:08;;;;;;;11.45;4.00;;;14.40;91.10;;;;;;20808501;28;80863;-70
2021/10/30 01:42:11;;;;;;;8.60;3.60;;;14.40;91.20;;;;;;20809425;28;80705;-69
2021/10/30 01:52:13;;;;;;;12.50;4.67;;;14.40;91.10;;;;;;20807916;28;80510;-70
2021/10/30 02:02:18;;;;;;;15.43;7.45;;;14.50;91.20;;;;;;20806174;28;80833;-71
2021/10/30 02:12:22;;;;;;;16.92;6.50;;;14.60;91.30;;;;;;20806555;28;81187;-70
2021/10/30 02:22:27;;;;;;;19.20;11.77;;;14.60;91.20;;;;;;20804986;28;80659;-70
2021/10/30 02:32:30;;;;;;;;;;;14.60;91.20;;;;;;20790000;28;82816;-74
2021/10/30 02:42:36;;;;;;;17.98;8.48;;;14.60;91.30;;;;;;20816313;28;84631;-73
2021/10/30 02:52:40;;;;;;;22.50;7.38;;;14.70;91.40;;;;;;20795285;28;80193;-69
2021/10/30 03:02:44;;;;;;;18.37;7.43;;;14.80;91.40;;;;;;20794024;28;80910;-70
2021/10/30 03:12:48;;;;;;;12.75;5.60;;;14.80;91.40;;;;;;20796889;28;80616;-70
2021/10/30 03:22:52;;;;;;;10.73;5.00;;;14.80;91.40;;;;;;20796369;28;80733;-69
2021/10/30 03:32:54;;;;;;;18.73;8.23;;;14.80;91.50;;;;;;20793107;28;80292;-71
2021/10/30 03:43:01;;;;;;;14.73;5.90;;;14.80;91.50;;;;;;20800786;28;80748;-70
2021/10/30 03:53:08;;;;;;;17.30;7.53;;;14.90;91.50;;;;;;20799916;28;80778;-70
2021/10/30 04:03:12;;;;;;;10.13;3.95;;;14.90;91.60;;;;;;20799590;28;80781;-70
2021/10/30 04:13:17;;;;;;;11.20;3.90;;;14.90;91.70;;;;;;20800289;28;80144;-72
2021/10/30 04:23:22;;;;;;;5.20;2.35;;;15.00;91.70;;;;;;20821791;27;80739;-69
2021/10/30 04:33:27;;;;;;;8.18;2.58;;;14.90;91.70;;;;;;20862402;28;79876;-71
2021/10/30 04:43:33;;;;;;;6.43;1.70;;;14.90;91.80;;;;;;20812521;28;80987;-71
2021/10/30 04:53:43;;;;;;;3.28;0.50;;;15.00;91.90;;;;;;20810833;28;80804;-71
2021/10/30 05:03:48;;;;;;;2.45;0.68;;;15.00;92.00;;;;;;20810305;28;81637;-68
2021/10/30 05:13:53;;;;;;;4.18;0.35;;;15.10;92.00;;;;;;20809988;28;80584;-68
2021/10/30 05:23:58;;;;;;;1.67;0.30;;;15.10;92.00;;;;;;20808869;28;79980;-72
2021/10/30 05:34:00;;;;;;;1.37;0.20;;;15.10;92.10;;;;;;20809423;28;80688;-67
2021/10/30 05:44:04;;;;;;;1.67;0.20;;;15.10;92.10;;;;;;20808841;28;80702;-70
2021/10/30 05:54:08;;;;;;;4.38;0.88;;;15.00;92.10;;;;;;20831060;27;80689;-71
2021/10/30 06:04:10;;;;;;;4.50;0.73;;;15.00;92.20;;;;;;20867482;27;80755;-68
2021/10/30 06:14:13;;;;;;;6.33;0.70;;;15.00;92.20;;;;;;20820741;27;80826;-69
2021/10/30 06:24:17;;;;;;;3.80;0.55;;;15.00;92.20;;;;;;20811770;27;80028;-70
2021/10/30 06:34:20;;;;;;;3.07;0.50;;;15.10;92.30;;;;;;20805727;28;81610;-70
2021/10/30 06:44:27;;;;;;;5.95;0.88;;;15.20;92.30;;;;;;20803739;28;81789;-69
2021/10/30 06:54:32;;;;;;;2.05;0.43;;;15.30;92.30;;;;;;20803098;28;81974;-68
2021/10/30 07:04:35;;;;;;;1.90;0.40;;;15.40;92.30;;;;;;20803356;28;81809;-71
2021/10/30 07:14:39;;;;;;;3.95;0.68;;;15.40;92.30;;;;;;20868862;28;81294;-71
2021/10/30 07:24:43;;;;;;;;;;;15.40;92.30;;;;;;20884901;28;80604;-71
2021/10/30 07:34:46;;;;;;;1.33;0.45;;;15.40;92.30;;;;;;20896103;27;81987;-72
2021/10/30 07:44:49;;;;;;;1.75;0.55;;;15.40;92.30;;;;;;20822226;28;80072;-73
2021/10/30 07:54:52;;;;;;;3.70;0.40;;;15.60;92.30;;;;;;20860637;28;81126;-73
2021/10/30 08:04:54;;;;;;;3.33;0.75;;;15.70;92.30;;;;;;20898191;28;81883;-73
2021/10/30 08:14:58;;;;;;;1.75;0.30;;;15.80;92.20;;;;;;20897210;28;81892;-71
2021/10/30 08:25:01;;;;;;;3.13;0.40;;;15.90;92.20;;;;;;20896060;27;80358;-71
2021/10/30 08:35:12;;;;;;;1.63;0.40;;;16.00;92.20;;;;;;20896055;27;80286;-72
2021/10/30 08:45:15;;;;;;;3.47;0.50;;;16.20;92.10;;;;;;20895996;27;80547;-71
2021/10/30 08:55:16;;;;;;;2.17;0.90;;;16.60;92.40;;;;;;20895021;27;81041;-72
2021/10/30 09:05:23;;;;;;;4.70;2.20;;;16.70;91.90;;;;;;20894025;27;81471;-69
2021/10/30 09:15:35;;;;;;;4.30;1.00;;;17.00;92.00;;;;;;20893931;27;80155;-69
2021/10/30 09:25:55;;;;;;;4.97;2.28;;;17.30;91.40;;;;;;20893543;27;82190;-71
2021/10/30 09:36:12;;;;;;;2.30;0.93;;;17.50;91.00;;;;;;20887636;27;82098;-65
2021/10/30 09:46:16;;;;;;;6.25;3.28;;;17.50;90.60;;;;;;20854696;27;81836;-63
2021/10/30 09:56:18;;;;;;;5.85;2.28;;;17.90;90.90;;;;;;20811577;28;82033;-63
2021/10/30 10:06:23;;;;;;;3.13;1.67;;;18.40;90.40;;;;;;20805111;28;80663;-63
2021/10/30 10:16:27;;;;;;;2.35;1.25;;;18.40;90.00;;;;;;20803451;28;79999;-62
2021/10/30 10:26:33;;;;;;;1.13;0.50;;;18.70;89.60;;;;;;20804666;28;82104;-61
2021/10/30 10:36:37;;;;;;;1.60;0.60;;;18.90;88.80;;;;;;20815993;27;82060;-62
2021/10/30 10:46:50;;;;;;;2.38;0.43;;;19.10;88.60;;;;;;20814199;27;80833;-63
2021/10/30 10:56:56;;;;;;;2.90;1.53;;;19.30;87.40;;;;;;20796450;28;80538;-60
2021/10/30 11:07:12;;;;;;;2.55;1.08;;;19.50;87.00;;;;;;20793090;28;81918;-61
2021/10/30 11:17:21;;;;;;;1.45;0.70;;;20.10;85.60;;;;;;20800297;28;81756;-63
2021/10/30 11:27:24;;;;;;;2.88;0.70;;;19.90;85.20;;;;;;20809629;28;80886;-62
2021/10/30 11:37:38;;;;;;;1.83;0.88;;;20.00;84.60;;;;;;20814886;28;80892;-63
2021/10/30 11:47:41;;;;;;;2.17;0.70;;;20.10;84.10;;;;;;20813938;28;80658;-61
2021/10/30 11:57:44;;;;;;;1.65;0.88;;;20.10;83.40;;;;;;20813704;28;80597;-61
2021/10/30 12:07:47;;;;;;;2.60;1.15;;;20.20;82.30;;;;;;20813983;28;81623;-61
2021/10/30 12:17:49;;;;;;;1.52;0.43;;;20.20;80.20;;;;;;20813399;28;80720;-62
2021/10/30 12:27:53;;;;;;;3.33;1.63;;;20.60;79.10;;;;;;20812985;28;80728;-61
2021/10/30 12:38:13;;;;;;;1.55;0.15;;;20.60;78.80;;;;;;20810868;28;80769;-61
2021/10/30 12:48:19;;;;;;;1.65;0.20;;;20.40;78.90;;;;;;20809707;28;81831;-63
2021/10/30 12:58:21;;;;;;;2.55;1.05;;;20.40;78.10;;;;;;20810338;28;80953;-63
2021/10/30 13:08:24;;;;;;;3.38;0.35;;;20.20;78.10;;;;;;20809302;28;80727;-62
2021/10/30 13:18:27;;;;;;;1.20;0.10;;;20.00;78.10;;;;;;20808694;28;80309;-62
2021/10/30 13:28:29;;;;;;;3.60;0.50;;;19.70;78.00;;;;;;20808809;28;80788;-63
2021/10/30 13:38:32;;;;;;;2.13;0.20;;;19.70;77.90;;;;;;20806839;28;80755;-62
2021/10/30 13:48:36;;;;;;;1.02;0.25;;;19.90;77.50;;;;;;20808764;28;80580;-61
2021/10/30 13:58:38;;;;;;;1.38;0.40;;;20.10;76.80;;;;;;20821226;27;80739;-62
2021/10/30 14:08:41;;;;;;;2.10;0.35;;;20.50;76.10;;;;;;20824182;27;81813;-61
2021/10/30 14:18:45;;;;;;;2.35;0.47;;;20.90;74.30;;;;;;20804891;28;80529;-63
2021/10/30 14:28:47;;;;;;;1.40;0.30;;;20.60;74.10;;;;;;20815285;27;80164;-60
2021/10/30 14:38:49;;;;;;;1.48;0.32;;;20.60;72.90;;;;;;20804081;28;81791;-63
2021/10/30 14:48:53;;;;;;;0.90;0.30;;;20.00;73.80;;;;;;20813070;27;80596;-59
2021/10/30 14:58:55;;;;;;;3.20;0.67;;;19.90;74.10;;;;;;20804843;27;82161;-61
2021/10/30 15:08:57;;;;;;;2.55;0.20;;;19.70;73.60;;;;;;20797873;28;80453;-61
2021/10/30 15:19:01;;;;;;;2.13;0.20;;;19.50;73.80;;;;;;20795832;28;81814;-59
2021/10/30 15:29:03;;;;;;;1.40;0.43;;;19.70;73.30;;;;;;20791415;28;82246;-59
2021/10/30 15:39:05;;;;;;;2.13;0.50;;;19.40;73.60;;;;;;20800250;28;80971;-60
2021/10/30 15:49:07;;;;;;;2.78;0.70;;;19.20;73.90;;;;;;20801663;28;81477;-60
2021/10/30 15:59:08;;;;;;;1.42;0.30;;;19.20;74.10;;;;;;20800149;28;81859;-59
2021/10/30 16:09:14;;;;;;;3.17;0.40;;;19.20;73.80;;;;;;20802406;28;81720;-60
2021/10/30 16:19:16;;;;;;;1.60;0.30;;;19.50;72.50;;;;;;20814110;28;80610;-61
2021/10/30 16:29:18;;;;;;;1.70;0.40;;;19.40;72.60;;;;;;20815397;28;80964;-59
2021/10/30 16:39:19;;;;;;;1.00;0.43;;;19.10;73.40;;;;;;20813020;28;80522;-60
2021/10/30 16:49:21;;;;;;;0.88;0.40;;;18.90;74.20;;;;;;20810808;28;80833;-60
2021/10/30 16:59:23;;;;;;;1.87;0.40;;;18.70;74.70;;;;;;20811149;28;82579;-60
2021/10/30 17:09:25;;;;;;;1.47;0.50;;;18.50;75.30;;;;;;20811319;28;79886;-59
2021/10/30 17:19:27;;;;;;;1.27;0.40;;;18.40;75.50;;;;;;20809226;28;80524;-59
2021/10/30 17:29:28;;;;;;;2.58;0.63;;;18.30;75.50;;;;;;20810835;28;84833;-60
2021/10/30 17:39:30;;;;;;;1.60;0.43;;;18.20;75.60;;;;;;20809284;28;80791;-61
2021/10/30 17:49:32;;;;;;;5.03;0.67;;;18.20;75.50;;;;;;20809146;28;80699;-61
2021/10/30 17:59:34;;;;;;;4.15;1.10;;;18.10;75.80;;;;;;20806883;28;81990;-59
2021/10/30 18:09:36;;;;;;;1.47;0.43;;;18.00;76.00;;;;;;20806699;28;82007;-58
2021/10/30 18:19:38;;;;;;;1.53;0.80;;;18.00;76.30;;;;;;20806305;28;81765;-59
2021/10/30 18:29:39;;;;;;;4.18;0.80;;;17.90;76.50;;;;;;20805963;28;81181;-60
2021/10/30 18:39:41;;;;;;;3.70;0.73;;;17.80;76.50;;;;;;20804093;28;80951;-60
2021/10/30 18:49:43;;;;;;;1.45;0.55;;;17.80;76.50;;;;;;20804496;28;81809;-60
2021/10/30 18:59:44;;;;;;;3.30;0.60;;;17.80;76.40;;;;;;20802607;28;80714;-59
2021/10/30 19:09:46;;;;;;;4.60;0.80;;;17.80;76.40;;;;;;20803702;28;80994;-60
2021/10/30 19:19:48;;;;;;;2.08;0.50;;;17.70;76.10;;;;;;20803028;28;81165;-60
2021/10/30 19:29:49;;;;;;;2.92;0.65;;;17.70;75.30;;;;;;20803127;28;80823;-60
2021/10/30 19:39:51;;;;;;;3.83;0.90;;;17.70;74.60;;;;;;20801957;28;82131;-60
2021/10/30 19:49:53;;;;;;;1.43;0.30;;;17.70;74.60;;;;;;20812498;28;80901;-59
2021/10/30 19:59:55;;;;;;;4.25;0.73;;;17.50;75.40;;;;;;20815145;28;80728;-59
2021/10/30 20:09:57;;;;;;;2.67;1.02;;;17.40;76.60;;;;;;20815287;28;81906;-60
2021/10/30 20:19:58;;;;;;;2.30;0.35;;;17.20;77.50;;;;;;20813627;28;80744;-59
2021/10/30 20:30:00;;;;;;;4.90;1.10;;;17.00;78.50;;;;;;20813401;28;80488;-60
2021/10/30 20:40:03;;;;;;;5.23;0.87;;;16.90;79.70;;;;;;20812494;28;81812;-60
2021/10/30 20:50:05;;;;;;;5.83;1.90;;;16.60;80.90;;;;;;20812188;28;82139;-60
2021/10/30 21:00:09;;;;;;;2.10;0.68;;;16.40;81.90;;;;;;20810969;28;81990;-58
2021/10/30 21:10:11;;;;;;;2.97;0.85;;;16.40;82.40;;;;;;20812894;28;82269;-61
2021/10/30 21:20:13;;;;;;;4.63;1.40;;;16.40;82.60;;;;;;20812198;28;81079;-59
2021/10/30 21:30:16;;;;;;;3.73;1.60;;;16.40;82.90;;;;;;20813220;28;81905;-59
2021/10/30 21:40:18;;;;;;;;;;;16.40;83.30;;;;;;20817518;27;80754;-70
2021/10/30 21:50:20;;;;;;;1.60;0.50;;;16.30;83.60;;;;;;20868679;27;80822;-71
2021/10/30 22:00:28;;;;;;;2.50;0.30;;;16.20;83.50;;;;;;20828185;27;79847;-70
2021/10/30 22:10:30;;;;;;;1.33;0.47;;;16.00;82.90;;;;;;20806783;28;82940;-71
2021/10/30 22:20:32;;;;;;;0.80;0.20;;;15.70;82.50;;;;;;20806262;28;80810;-69
2021/10/30 22:30:35;;;;;;;2.70;0.80;;;15.60;82.40;;;;;;20804216;28;81061;-70
2021/10/30 22:40:38;;;;;;;5.72;0.57;;;15.60;82.40;;;;;;20805518;28;81764;-69
2021/10/30 22:50:40;;;;;;;6.57;0.90;;;15.60;82.40;;;;;;20804152;28;81885;-72
2021/10/30 23:00:42;;;;;;;1.63;0.60;;;15.60;82.50;;;;;;20815187;27;80035;-71
2021/10/30 23:10:44;;;;;;;3.58;1.20;;;15.60;82.80;;;;;;20801510;28;80899;-71
2021/10/30 23:20:47;;;;;;;3.58;0.98;;;15.70;82.90;;;;;;20800651;28;80701;-71
2021/10/30 23:30:48;;;;;;;4.03;0.87;;;15.70;83.10;;;;;;20801388;28;80740;-74
2021/10/30 23:40:51;;;;;;;2.35;0.77;;;15.70;83.30;;;;;;20806607;27;80746;-69
2021/10/30 23:50:55;;;;;;;3.10;0.90;;;15.70;83.40;;;;;;20811397;28;80867;-70
